Abbott, Pennsylvania
Current Conditions -  °F | °C
As of 11:35 PM on Thursday 18 Dec 2014 (Local Time) from KN38 Reporting Station
Overcast Overcast  
Wind Chill: -7°   Ceiling: 1000
Heat Index: -2°   Visibility: 7mi
Dew Point: -4°   Wind: 10mph
Humidity: 86%   Direction: 290°WNW
Pressure: 29.99"   Gusts: 16mph
Location:  41.6755°N, 77.7071°W
Report Text: KN38 190435Z AUTO 29009G14KT 7SM OVC010 M02/M04 A2999 RMK AO2
Loading
Personal Weather Stations






























Interactive Weather Map New forecast layout! Learn more

10-Day Weather Forecast

Advertisements
Track Severe Weather on mobile